createdAt,value
2017-09-07T00:00:00.228Z,21.30
2017-09-07T00:02:27.740Z,23.30
2017-09-07T00:04:55.264Z,17.17
2017-09-07T00:07:22.757Z,20.30
2017-09-07T00:09:50.265Z,25.00
2017-09-07T00:12:17.842Z,18.60
2017-09-07T00:14:45.355Z,26.77
2017-09-07T00:17:12.852Z,21.93
2017-09-07T00:19:40.385Z,29.43
2017-09-07T00:22:07.899Z,29.70
2017-09-07T00:24:35.423Z,22.50
2017-09-07T00:27:03.039Z,25.83
2017-09-07T00:29:30.564Z,18.23
2017-09-07T00:31:58.214Z,20.67
2017-09-07T00:34:25.740Z,25.03
2017-09-07T00:36:53.256Z,22.70
2017-09-07T00:39:20.826Z,21.40
2017-09-07T00:41:48.360Z,17.77
2017-09-07T00:44:15.868Z,19.73
2017-09-07T00:46:43.376Z,21.70
2017-09-07T00:49:10.942Z,28.87
2017-09-07T00:51:38.498Z,26.87
2017-09-07T00:54:06.024Z,26.30
2017-09-07T00:56:33.563Z,28.60
2017-09-07T00:59:01.066Z,28.17
2017-09-07T01:01:28.587Z,27.13
2017-09-07T01:03:56.130Z,26.70
2017-09-07T01:06:23.652Z,20.67
2017-09-07T01:08:51.204Z,22.77
2017-09-07T01:11:18.977Z,28.43
2017-09-07T01:13:46.484Z,24.40
2017-09-07T01:16:13.988Z,15.73
2017-09-07T01:18:41.520Z,25.67
2017-09-07T01:21:09.036Z,34.37
2017-09-07T01:23:36.547Z,25.87
2017-09-07T01:26:04.066Z,20.50
2017-09-07T01:28:31.577Z,27.60
2017-09-07T01:30:59.176Z,19.20
2017-09-07T01:33:26.698Z,22.20
2017-09-07T01:35:54.232Z,27.47
2017-09-07T01:38:21.763Z,22.47
2017-09-07T01:40:49.314Z,35.90
2017-09-07T01:43:16.835Z,21.23
2017-09-07T01:45:44.340Z,26.23
2017-09-07T01:48:23.813Z,27.83
2017-09-07T01:50:51.324Z,47.77
2017-09-07T01:53:18.936Z,29.20
2017-09-07T01:55:46.495Z,36.83
2017-09-07T01:58:13.992Z,32.90
2017-09-07T02:00:41.557Z,26.60
2017-09-07T02:03:09.078Z,32.03
2017-09-07T02:05:36.589Z,23.90
2017-09-07T02:08:04.148Z,28.30
2017-09-07T02:10:31.669Z,26.50
2017-09-07T02:12:59.195Z,28.20
2017-09-07T02:15:26.738Z,24.53
2017-09-07T02:17:54.245Z,20.93
2017-09-07T02:20:21.769Z,29.50
2017-09-07T02:22:49.301Z,24.70
2017-09-07T02:25:16.831Z,32.07
2017-09-07T02:27:44.351Z,26.70
2017-09-07T02:30:11.892Z,28.97
2017-09-07T02:32:39.408Z,43.23
2017-09-07T02:35:06.939Z,25.97
2017-09-07T02:37:34.499Z,35.70
2017-09-07T02:40:01.994Z,23.43
2017-09-07T02:42:29.543Z,22.43
2017-09-07T02:44:57.082Z,24.10
2017-09-07T02:47:24.601Z,27.07
2017-09-07T02:49:52.121Z,21.33
2017-09-07T02:52:19.664Z,28.83
2017-09-07T02:54:47.970Z,24.03
2017-09-07T02:57:15.491Z,28.93
2017-09-07T02:59:43.021Z,30.23
2017-09-07T03:02:10.536Z,20.90
2017-09-07T03:04:38.066Z,28.63
2017-09-07T03:07:05.585Z,26.33
2017-09-07T03:09:33.107Z,27.77
2017-09-07T03:12:00.605Z,31.50
2017-09-07T03:14:28.135Z,34.20
2017-09-07T03:16:55.663Z,35.00
2017-09-07T03:19:23.178Z,21.80
2017-09-07T03:21:50.738Z,30.57
2017-09-07T03:24:18.264Z,29.77
2017-09-07T03:26:45.796Z,35.60
2017-09-07T03:29:13.352Z,30.27
2017-09-07T03:31:40.865Z,33.77
2017-09-07T03:34:08.387Z,31.63
2017-09-07T03:36:35.912Z,32.83
2017-09-07T03:39:03.409Z,29.37
2017-09-07T03:41:30.927Z,25.70
2017-09-07T03:43:58.463Z,36.70
2017-09-07T03:46:25.969Z,18.87
2017-09-07T03:48:53.494Z,30.83
2017-09-07T03:51:21.052Z,21.17
2017-09-07T03:53:48.572Z,30.10
2017-09-07T03:56:16.119Z,26.17
2017-09-07T03:58:43.666Z,23.03
2017-09-07T04:01:11.178Z,29.00
2017-09-07T04:03:38.726Z,30.77
2017-09-07T04:06:06.279Z,25.93
2017-09-07T04:08:33.780Z,18.47
2017-09-07T04:11:01.311Z,17.87
2017-09-07T04:13:28.836Z,29.93
2017-09-07T04:15:56.348Z,27.80
2017-09-07T04:18:23.869Z,31.10
2017-09-07T04:20:51.468Z,31.73
2017-09-07T04:23:19.004Z,36.27
2017-09-07T04:25:46.543Z,35.57
2017-09-07T04:28:14.084Z,28.77
2017-09-07T04:30:41.602Z,19.63
2017-09-07T04:33:09.145Z,31.23
2017-09-07T04:35:36.699Z,25.33
2017-09-07T04:38:04.223Z,26.23
2017-09-07T04:40:31.748Z,25.87
2017-09-07T04:42:59.291Z,32.63
2017-09-07T04:45:26.790Z,32.33
2017-09-07T04:47:54.282Z,20.87
2017-09-07T04:50:21.815Z,31.40
2017-09-07T04:52:50.093Z,21.50
2017-09-07T04:55:17.612Z,34.37
2017-09-07T04:57:45.157Z,28.87
2017-09-07T05:00:12.680Z,35.20
2017-09-07T05:02:40.207Z,31.87
2017-09-07T05:05:07.760Z,36.27
2017-09-07T05:07:35.284Z,24.37
2017-09-07T05:10:02.809Z,32.53
2017-09-07T05:12:30.368Z,16.13
2017-09-07T05:14:57.884Z,28.57
2017-09-07T05:17:25.404Z,28.67
2017-09-07T05:19:52.932Z,32.67
2017-09-07T05:22:20.450Z,27.73
2017-09-07T05:24:47.951Z,29.83
2017-09-07T05:27:15.479Z,32.57
2017-09-07T05:29:42.983Z,27.83
2017-09-07T05:32:10.496Z,25.07
2017-09-07T05:34:38.070Z,31.57
2017-09-07T05:37:05.591Z,21.40
2017-09-07T05:39:33.107Z,22.30
2017-09-07T05:42:00.633Z,35.57
2017-09-07T05:44:28.143Z,29.20
2017-09-07T05:46:55.664Z,25.30
2017-09-07T05:49:23.210Z,25.77
2017-09-07T05:51:50.717Z,28.23
2017-09-07T05:54:18.240Z,24.13
2017-09-07T05:56:45.762Z,32.90
2017-09-07T05:59:13.325Z,25.70
2017-09-07T06:01:40.852Z,26.63
2017-09-07T06:04:08.353Z,32.30
2017-09-07T06:06:35.884Z,36.90
2017-09-07T06:09:03.417Z,26.83
2017-09-07T06:11:30.944Z,27.80
2017-09-07T06:13:58.535Z,32.60
2017-09-07T06:16:26.072Z,34.30
2017-09-07T06:18:53.586Z,32.67
2017-09-07T06:21:21.136Z,27.33
2017-09-07T06:23:48.655Z,24.90
2017-09-07T06:26:16.172Z,25.10
2017-09-07T06:28:43.698Z,26.47
2017-09-07T06:31:11.219Z,28.73
2017-09-07T06:33:38.755Z,31.07
2017-09-07T06:36:06.309Z,22.43
2017-09-07T06:38:33.813Z,32.07
2017-09-07T06:41:01.310Z,27.67
2017-09-07T06:43:28.848Z,20.80
2017-09-07T06:45:56.350Z,35.03
2017-09-07T06:48:23.884Z,29.90
2017-09-07T06:50:51.440Z,24.27
2017-09-07T06:53:18.940Z,34.93
2017-09-07T06:55:46.455Z,37.63
2017-09-07T06:58:13.989Z,33.90
2017-09-07T07:00:41.530Z,24.30
2017-09-07T07:03:09.054Z,35.87
2017-09-07T07:05:36.592Z,21.53
2017-09-07T07:08:04.866Z,30.53
2017-09-07T07:10:32.382Z,25.10
2017-09-07T07:12:59.947Z,29.07
2017-09-07T07:15:27.479Z,27.90
2017-09-07T07:17:55.036Z,31.27
2017-09-07T07:20:22.555Z,27.50
2017-09-07T07:22:50.102Z,20.23
2017-09-07T07:25:17.628Z,21.17
2017-09-07T07:27:45.148Z,26.17
2017-09-07T07:30:12.708Z,19.83
2017-09-07T07:32:40.237Z,31.33
2017-09-07T07:35:07.780Z,28.00
2017-09-07T07:37:35.338Z,28.57
2017-09-07T07:40:02.845Z,26.33
2017-09-07T07:42:30.368Z,24.53
2017-09-07T07:44:57.931Z,25.97
2017-09-07T07:47:25.520Z,35.30
2017-09-07T07:49:53.052Z,23.37
2017-09-07T07:52:20.655Z,31.70
2017-09-07T07:54:48.174Z,26.90
2017-09-07T07:57:15.690Z,26.23
2017-09-07T07:59:43.257Z,22.33
2017-09-07T08:02:10.799Z,34.13
2017-09-07T08:04:38.309Z,30.30
2017-09-07T08:07:05.845Z,30.90
2017-09-07T08:09:33.363Z,23.73
2017-09-07T08:12:00.873Z,30.77
2017-09-07T08:14:28.443Z,26.27
2017-09-07T08:16:55.960Z,25.57
2017-09-07T08:19:23.467Z,23.93
2017-09-07T08:21:50.997Z,36.60
2017-09-07T08:24:18.515Z,29.97
2017-09-07T08:26:46.039Z,25.57
2017-09-07T08:29:13.573Z,32.03
2017-09-07T08:31:41.074Z,23.00
2017-09-07T08:34:08.605Z,28.10
2017-09-07T08:36:36.139Z,22.10
2017-09-07T08:39:03.660Z,22.20
2017-09-07T08:41:31.200Z,25.00
2017-09-07T08:43:58.741Z,25.33
2017-09-07T08:46:26.233Z,21.97
2017-09-07T08:48:53.739Z,26.30
2017-09-07T08:51:21.291Z,26.57
2017-09-07T08:53:48.816Z,26.17
2017-09-07T08:56:16.387Z,23.80
2017-09-07T08:58:43.900Z,14.70
2017-09-07T09:01:11.438Z,22.30
2017-09-07T09:03:38.953Z,17.80
2017-09-07T09:06:06.516Z,20.00
2017-09-07T09:08:34.037Z,19.90
2017-09-07T09:11:01.557Z,19.53
2017-09-07T09:13:29.102Z,21.20
2017-09-07T09:15:56.616Z,24.30
2017-09-07T09:18:24.124Z,24.00
2017-09-07T09:20:51.747Z,23.60
2017-09-07T09:23:19.272Z,22.23
2017-09-07T09:25:46.784Z,25.97
2017-09-07T09:28:14.344Z,25.43
2017-09-07T09:30:42.628Z,22.10
2017-09-07T09:33:10.148Z,26.13
2017-09-07T09:35:37.674Z,21.27
2017-09-07T09:38:05.199Z,22.20
2017-09-07T09:40:33.475Z,29.37
2017-09-07T09:43:01.013Z,19.20
2017-09-07T09:45:28.536Z,24.00
2017-09-07T09:47:56.064Z,19.57
2017-09-07T09:50:23.614Z,23.17
2017-09-07T09:52:51.107Z,24.93
2017-09-07T09:55:18.613Z,21.27
2017-09-07T09:57:46.293Z,24.70
2017-09-07T10:00:13.804Z,28.60
2017-09-07T10:02:41.310Z,25.00
2017-09-07T10:05:08.851Z,18.07
2017-09-07T10:07:37.147Z,21.67
2017-09-07T10:10:04.678Z,22.00
2017-09-07T10:12:32.204Z,32.63
2017-09-07T10:14:59.710Z,20.80
2017-09-07T10:17:27.238Z,25.43
2017-09-07T10:19:54.747Z,27.70
2017-09-07T10:22:22.251Z,22.97
2017-09-07T10:24:49.777Z,22.00
2017-09-07T10:27:17.287Z,20.13
2017-09-07T10:29:44.794Z,19.80
2017-09-07T10:32:12.325Z,17.10
2017-09-07T10:34:39.825Z,21.60
2017-09-07T10:37:07.322Z,25.00
2017-09-07T10:39:34.871Z,23.30
2017-09-07T10:42:02.417Z,22.43
2017-09-07T10:44:29.917Z,26.07
2017-09-07T10:46:57.932Z,26.47
2017-09-07T10:49:25.444Z,21.17
2017-09-07T10:51:52.964Z,23.63
2017-09-07T10:54:20.495Z,22.90
2017-09-07T10:56:47.994Z,25.37
2017-09-07T10:59:15.517Z,19.00
2017-09-07T11:01:43.075Z,24.87
2017-09-07T11:04:10.588Z,30.93
2017-09-07T11:06:38.093Z,24.63
2017-09-07T11:09:05.652Z,21.10
2017-09-07T11:11:33.163Z,21.60
2017-09-07T11:14:00.664Z,28.77
2017-09-07T11:16:28.226Z,27.57
2017-09-07T11:18:55.740Z,20.03
2017-09-07T11:21:23.267Z,18.20
2017-09-07T11:23:50.769Z,21.60
2017-09-07T11:26:18.265Z,35.23
2017-09-07T11:28:45.785Z,30.53
2017-09-07T11:31:14.062Z,31.33
2017-09-07T11:33:41.579Z,23.77
2017-09-07T11:36:09.101Z,24.20
2017-09-07T11:38:36.616Z,29.43
2017-09-07T11:41:04.129Z,19.70
2017-09-07T11:43:31.899Z,22.17
2017-09-07T11:45:59.423Z,22.37
2017-09-07T11:48:26.933Z,27.93
2017-09-07T11:50:54.471Z,30.37
2017-09-07T11:53:22.004Z,33.47
2017-09-07T11:55:49.525Z,27.73
2017-09-07T11:58:17.068Z,22.17
2017-09-07T12:00:44.564Z,20.83
2017-09-07T12:03:12.056Z,18.07
2017-09-07T12:05:39.603Z,21.53
2017-09-07T12:08:07.123Z,25.30
2017-09-07T12:10:34.681Z,25.07
2017-09-07T12:13:02.237Z,21.70
2017-09-07T12:15:29.779Z,23.63
2017-09-07T12:17:57.295Z,27.77
2017-09-07T12:20:24.843Z,31.93
2017-09-07T12:22:52.363Z,22.87
2017-09-07T12:25:19.860Z,29.50
2017-09-07T12:27:47.394Z,25.90
2017-09-07T12:30:14.904Z,27.73
2017-09-07T12:32:42.424Z,24.10
2017-09-07T12:35:09.984Z,22.70
2017-09-07T12:37:37.498Z,27.97
2017-09-07T12:40:05.016Z,25.50
2017-09-07T12:42:33.315Z,25.47
2017-09-07T12:45:00.864Z,28.70
2017-09-07T12:47:28.464Z,26.13
2017-09-07T12:49:55.976Z,19.60
2017-09-07T12:52:23.509Z,19.60
2017-09-07T12:54:51.017Z,17.60
2017-09-07T12:57:18.520Z,20.87
2017-09-07T12:59:46.072Z,20.70
2017-09-07T13:02:13.586Z,16.80
2017-09-07T13:04:41.127Z,18.63
2017-09-07T13:07:08.657Z,27.23
2017-09-07T13:09:36.157Z,27.73
2017-09-07T13:12:04.432Z,20.63
2017-09-07T13:14:31.982Z,26.47
2017-09-07T13:17:00.236Z,23.03
2017-09-07T13:19:27.733Z,15.00
2017-09-07T13:21:55.256Z,15.90
2017-09-07T13:24:22.772Z,19.07
2017-09-07T13:26:50.268Z,15.43
2017-09-07T13:29:17.797Z,17.40
2017-09-07T13:31:45.328Z,23.63
2017-09-07T13:34:12.833Z,22.57
2017-09-07T13:36:40.404Z,19.13
2017-09-07T13:39:07.926Z,17.07
2017-09-07T13:41:35.458Z,19.37
2017-09-07T13:44:03.772Z,19.40
2017-09-07T13:46:31.268Z,19.60
2017-09-07T13:48:58.780Z,18.00
2017-09-07T13:51:26.297Z,19.17
2017-09-07T13:53:53.795Z,21.93
2017-09-07T13:56:21.293Z,27.43
2017-09-07T13:58:48.836Z,24.63
2017-09-07T14:01:16.351Z,31.20
2017-09-07T14:03:43.857Z,25.30
2017-09-07T14:06:11.390Z,22.83
2017-09-07T14:08:38.925Z,15.53
2017-09-07T14:11:06.451Z,23.53
2017-09-07T14:13:33.949Z,17.10
2017-09-07T14:16:01.466Z,21.40
2017-09-07T14:18:28.969Z,18.77
2017-09-07T14:20:56.476Z,24.37
2017-09-07T14:23:23.989Z,16.13
2017-09-07T14:25:51.507Z,17.83
2017-09-07T14:28:19.039Z,19.00
2017-09-07T14:30:46.585Z,14.70
2017-09-07T14:33:14.111Z,16.07
2017-09-07T14:35:41.634Z,18.57
2017-09-07T14:38:09.319Z,14.80
2017-09-07T14:40:36.903Z,18.30
2017-09-07T14:43:04.481Z,18.50
2017-09-07T14:45:32.038Z,12.80
2017-09-07T14:47:59.629Z,19.40
2017-09-07T14:50:27.280Z,20.97
2017-09-07T14:52:54.862Z,13.90
2017-09-07T14:55:22.467Z,18.63
2017-09-07T14:57:50.016Z,17.63
2017-09-07T15:00:17.575Z,24.83
2017-09-07T15:02:45.366Z,17.67
2017-09-07T15:05:13.033Z,17.83
2017-09-07T15:07:40.793Z,15.93
2017-09-07T15:10:08.763Z,14.70
2017-09-07T15:12:36.630Z,15.20
2017-09-07T15:15:05.008Z,12.30
2017-09-07T15:17:32.876Z,16.03
2017-09-07T15:20:00.811Z,13.70
2017-09-07T15:22:28.637Z,12.73
2017-09-07T15:24:56.476Z,14.10
2017-09-07T15:27:24.447Z,8.50
2017-09-07T15:29:52.320Z,15.50
2017-09-07T15:32:20.385Z,24.93
2017-09-07T15:34:48.660Z,17.00
2017-09-07T15:37:17.247Z,12.13
2017-09-07T15:39:45.827Z,10.80
2017-09-07T15:42:14.616Z,12.23
2017-09-07T15:44:43.204Z,13.37
2017-09-07T15:47:11.888Z,9.30
2017-09-07T15:49:41.392Z,18.83
2017-09-07T15:52:09.984Z,13.63
2017-09-07T15:54:38.951Z,13.43
2017-09-07T15:57:07.758Z,15.53
2017-09-07T15:59:36.855Z,11.80
2017-09-07T16:02:05.154Z,9.83
2017-09-07T16:04:33.818Z,12.03
2017-09-07T16:07:02.177Z,12.40
2017-09-07T16:09:30.762Z,16.00
2017-09-07T16:11:59.263Z,10.33
2017-09-07T16:14:28.074Z,12.10
2017-09-07T16:16:56.633Z,7.50
2017-09-07T16:19:25.218Z,13.20
2017-09-07T16:21:54.009Z,10.27
2017-09-07T16:24:22.896Z,10.10
2017-09-07T16:26:51.483Z,8.87
2017-09-07T16:29:20.738Z,17.67
2017-09-07T16:31:49.365Z,14.10
2017-09-07T16:34:17.949Z,8.03
2017-09-07T16:36:46.535Z,9.37
2017-09-07T16:39:15.423Z,10.97
2017-09-07T16:41:44.007Z,11.00
2017-09-07T16:44:13.615Z,14.10
2017-09-07T16:46:42.199Z,13.30
2017-09-07T16:49:10.824Z,13.40
2017-09-07T16:51:39.469Z,9.97
2017-09-07T16:54:08.054Z,12.60
2017-09-07T16:56:36.636Z,11.00
2017-09-07T16:59:05.527Z,14.90
2017-09-07T17:01:33.907Z,13.23
2017-09-07T17:04:02.805Z,11.30
2017-09-07T17:06:32.065Z,15.90
2017-09-07T17:08:59.966Z,12.53
2017-09-07T17:11:27.934Z,11.10
2017-09-07T17:13:55.618Z,12.50
2017-09-07T17:16:23.288Z,22.70
2017-09-07T17:18:51.229Z,27.70
2017-09-07T17:21:18.776Z,17.43
2017-09-07T17:23:46.305Z,17.83
2017-09-07T17:26:13.865Z,12.03
2017-09-07T17:29:12.608Z,11.73
2017-09-07T17:31:40.152Z,12.17
2017-09-07T17:34:07.664Z,18.03
2017-09-07T17:36:35.177Z,23.37
2017-09-07T17:39:02.733Z,15.27
2017-09-07T17:41:30.255Z,17.70
2017-09-07T17:43:58.525Z,18.40
2017-09-07T17:46:26.805Z,12.80
2017-09-07T17:48:55.095Z,16.93
2017-09-07T17:51:22.620Z,21.33
2017-09-07T17:53:50.172Z,10.83
2017-09-07T17:56:17.686Z,17.13
2017-09-07T17:58:45.220Z,21.40
2017-09-07T18:01:14.535Z,20.63
2017-09-07T18:03:42.061Z,20.03
2017-09-07T18:06:09.584Z,9.87
2017-09-07T18:08:37.139Z,17.20
2017-09-07T18:11:04.663Z,19.43
2017-09-07T18:13:32.933Z,18.63
2017-09-07T18:16:01.263Z,16.27
2017-09-07T18:18:28.780Z,20.53
2017-09-07T18:20:57.059Z,29.13
2017-09-07T18:23:24.610Z,18.97
2017-09-07T18:25:52.887Z,16.10
2017-09-07T18:28:21.163Z,16.20
2017-09-07T18:30:49.577Z,23.00
2017-09-07T18:33:17.127Z,14.53
2017-09-07T18:35:44.647Z,21.10
2017-09-07T18:38:12.975Z,18.83
2017-09-07T18:40:40.480Z,14.43
2017-09-07T18:43:07.979Z,16.93
2017-09-07T18:45:35.524Z,21.10
2017-09-07T18:48:03.042Z,16.73
2017-09-07T18:50:30.595Z,11.97
2017-09-07T18:52:58.164Z,17.30
2017-09-07T18:55:25.664Z,19.80
2017-09-07T18:57:53.192Z,20.30
2017-09-07T19:00:20.735Z,21.10
2017-09-07T19:02:48.237Z,12.53
2017-09-07T19:05:15.787Z,14.73
2017-09-07T19:07:44.108Z,13.70
2017-09-07T19:10:11.628Z,17.80
2017-09-07T19:12:39.911Z,17.50
2017-09-07T19:15:07.596Z,20.80
2017-09-07T19:17:35.129Z,15.80
2017-09-07T19:20:03.405Z,20.93
2017-09-07T19:22:30.954Z,12.00
2017-09-07T19:24:59.229Z,18.73
2017-09-07T19:27:27.510Z,18.97
2017-09-07T19:29:55.804Z,22.43
2017-09-07T19:32:23.345Z,19.30
2017-09-07T19:34:51.623Z,27.43
2017-09-07T19:37:19.939Z,17.37
2017-09-07T19:39:47.783Z,17.83
2017-09-07T19:42:15.313Z,27.50
2017-09-07T19:44:43.638Z,18.83
2017-09-07T19:47:11.142Z,18.13
2017-09-07T19:49:38.661Z,21.20
2017-09-07T19:52:06.202Z,18.13
2017-09-07T19:54:33.720Z,20.27
2017-09-07T19:57:01.235Z,19.50
2017-09-07T19:59:28.781Z,19.33
2017-09-07T20:01:56.284Z,17.17
2017-09-07T20:04:23.815Z,20.63
2017-09-07T20:06:51.388Z,14.13
2017-09-07T20:09:18.903Z,20.13
2017-09-07T20:11:46.435Z,20.83
2017-09-07T20:14:14.000Z,17.23
2017-09-07T20:16:42.295Z,15.77
2017-09-07T20:19:09.806Z,20.13
2017-09-07T20:21:37.348Z,22.60
2017-09-07T20:24:04.871Z,22.43
2017-09-07T20:26:33.144Z,18.97
2017-09-07T20:29:01.436Z,26.10
2017-09-07T20:31:28.956Z,21.53
2017-09-07T20:33:56.476Z,19.53
2017-09-07T20:36:24.039Z,15.73
2017-09-07T20:38:51.560Z,19.83
2017-09-07T20:41:19.157Z,13.10
2017-09-07T20:43:46.696Z,15.00
2017-09-07T20:46:14.223Z,16.73
2017-09-07T20:48:42.488Z,22.77
2017-09-07T20:51:10.045Z,26.13
2017-09-07T20:53:37.549Z,21.43
2017-09-07T20:56:05.076Z,21.27
2017-09-07T20:58:33.406Z,15.80
2017-09-07T21:01:00.945Z,13.40
2017-09-07T21:03:28.471Z,19.17
2017-09-07T21:05:56.776Z,19.77
2017-09-07T21:08:25.062Z,16.20
2017-09-07T21:10:52.588Z,16.13
2017-09-07T21:13:20.898Z,16.00
2017-09-07T21:15:48.418Z,24.03
2017-09-07T21:18:16.693Z,25.30
2017-09-07T21:20:44.999Z,22.33
2017-09-07T21:23:12.528Z,22.63
2017-09-07T21:25:40.053Z,15.00
2017-09-07T21:28:07.608Z,15.10
2017-09-07T21:30:35.105Z,16.17
2017-09-07T21:33:02.627Z,13.83
2017-09-07T21:35:30.168Z,20.00
2017-09-07T21:37:57.679Z,17.97
2017-09-07T21:40:25.185Z,21.50
2017-09-07T21:42:52.720Z,21.90
2017-09-07T21:45:20.996Z,20.33
2017-09-07T21:47:49.284Z,27.20
2017-09-07T21:50:16.837Z,20.13
2017-09-07T21:52:45.116Z,20.60
2017-09-07T21:55:13.384Z,21.27
2017-09-07T21:57:41.716Z,18.03
2017-09-07T22:00:09.224Z,25.53
2017-09-07T22:02:37.516Z,17.20
2017-09-07T22:05:05.065Z,22.37
2017-09-07T22:07:32.585Z,14.50
2017-09-07T22:10:00.092Z,20.47
2017-09-07T22:12:27.644Z,18.73
2017-09-07T22:14:55.916Z,24.57
2017-09-07T22:17:23.458Z,22.10
2017-09-07T22:19:51.759Z,14.70
2017-09-07T22:22:19.288Z,17.27
2017-09-07T22:24:46.958Z,23.87
2017-09-07T22:27:15.270Z,16.23
2017-09-07T22:29:42.792Z,16.40
2017-09-07T22:32:11.071Z,20.27
2017-09-07T22:34:39.365Z,17.67
2017-09-07T22:37:06.888Z,13.43
2017-09-07T22:39:34.419Z,16.87
2017-09-07T22:42:01.974Z,19.60
2017-09-07T22:44:29.886Z,14.97
2017-09-07T22:46:57.389Z,11.83
2017-09-07T22:49:25.159Z,14.33
2017-09-07T22:51:52.662Z,17.87
2017-09-07T22:54:20.937Z,18.60
2017-09-07T22:56:48.467Z,12.30
2017-09-07T22:59:16.002Z,10.90
2017-09-07T23:01:43.528Z,17.77
2017-09-07T23:04:11.826Z,17.80
2017-09-07T23:06:39.357Z,10.17
2017-09-07T23:09:06.881Z,15.33
2017-09-07T23:11:34.417Z,12.10
2017-09-07T23:14:01.932Z,15.60
2017-09-07T23:16:29.460Z,13.13
2017-09-07T23:18:56.997Z,14.67
2017-09-07T23:21:24.531Z,18.20
2017-09-07T23:23:52.805Z,19.67
2017-09-07T23:26:21.093Z,10.70
2017-09-07T23:28:48.676Z,13.13
2017-09-07T23:31:16.194Z,12.37
2017-09-07T23:33:44.499Z,14.83
2017-09-07T23:36:12.019Z,17.70
2017-09-07T23:38:39.548Z,15.97
2017-09-07T23:41:07.140Z,9.40
2017-09-07T23:43:34.668Z,11.10
2017-09-07T23:46:02.192Z,10.90
2017-09-07T23:48:29.732Z,11.20
2017-09-07T23:50:58.028Z,17.33
2017-09-07T23:53:25.536Z,7.23
2017-09-07T23:55:53.059Z,8.47
2017-09-07T23:58:20.588Z,14.27
